Time;durP1;ratioP1;P1;durP2;ratioP2;P2;SDS_P1;SDS_P2;PMS_P1;PMS_P2;Temp;Humidity;BMP_temperature;BMP_pressure;BME280_temperature;BME280_humidity;BME280_pressure;Samples;Min_cycle;Max_cycle;Signal;HPM_P1;HPM_P2
2021/06/30 00:00:41;;;;;;;4.55;2.05;;;15.00;99.90;;;;;;5028259;28;20033;-77
2021/06/30 00:03:07;;;;;;;3.65;2.03;;;15.00;99.90;;;;;;5010357;28;20038;-77
2021/06/30 00:05:33;;;;;;;4.22;2.20;;;15.00;99.90;;;;;;5033212;28;20073;-76
2021/06/30 00:07:58;;;;;;;6.20;2.20;;;15.00;99.90;;;;;;5028220;28;20028;-77
2021/06/30 00:10:24;;;;;;;4.15;2.28;;;15.00;99.90;;;;;;5036758;28;20040;-77
2021/06/30 00:12:49;;;;;;;3.40;2.40;;;15.00;99.90;;;;;;5033622;28;20026;-77
2021/06/30 00:15:22;;;;;;;3.42;2.03;;;15.00;99.90;;;;;;5040332;28;20041;-77
2021/06/30 00:17:48;;;;;;;3.67;2.17;;;15.00;99.90;;;;;;5027950;28;20386;-77
2021/06/30 00:20:14;;;;;;;2.47;2.10;;;15.00;99.90;;;;;;5027698;28;20448;-77
2021/06/30 00:22:41;;;;;;;1.73;1.60;;;15.00;99.90;;;;;;5038497;28;20039;-77
2021/06/30 00:25:08;;;;;;;2.58;2.10;;;15.00;99.90;;;;;;5044152;28;20026;-77
2021/06/30 00:27:34;;;;;;;8.35;2.65;;;15.00;99.90;;;;;;5027740;28;20049;-77
2021/06/30 00:30:00;;;;;;;5.43;2.03;;;15.00;99.90;;;;;;5032059;28;20110;-77
2021/06/30 00:32:25;;;;;;;5.15;2.20;;;15.00;99.90;;;;;;5039208;28;20064;-77
2021/06/30 00:34:51;;;;;;;4.85;2.25;;;14.90;99.90;;;;;;5027771;28;20061;-77
2021/06/30 00:37:17;;;;;;;2.53;1.85;;;14.90;99.90;;;;;;5027130;28;20025;-77
2021/06/30 00:39:43;;;;;;;4.90;2.00;;;14.90;99.90;;;;;;5031508;28;20025;-77
2021/06/30 00:42:08;;;;;;;5.10;1.88;;;14.90;99.90;;;;;;5029899;28;20022;-77
2021/06/30 00:44:34;;;;;;;7.57;2.30;;;14.90;99.90;;;;;;5042356;28;20063;-77
2021/06/30 00:47:01;;;;;;;4.18;2.38;;;14.90;99.90;;;;;;5031615;28;20040;-77
2021/06/30 00:49:27;;;;;;;3.90;2.00;;;14.90;99.90;;;;;;5028972;28;20077;-77
2021/06/30 00:51:52;;;;;;;2.83;1.95;;;14.80;99.90;;;;;;5034861;28;20057;-77
2021/06/30 00:54:18;;;;;;;6.05;2.50;;;14.80;99.90;;;;;;5027476;28;20832;-77
2021/06/30 00:56:44;;;;;;;2.80;1.80;;;14.80;99.90;;;;;;5027612;28;20478;-77
2021/06/30 00:59:12;;;;;;;4.72;2.15;;;14.80;99.90;;;;;;5009505;28;20455;-77
2021/06/30 01:01:38;;;;;;;4.22;2.30;;;14.80;99.90;;;;;;5036332;28;20025;-77
2021/06/30 01:04:04;;;;;;;5.75;2.55;;;14.80;99.90;;;;;;5030984;28;20029;-77
2021/06/30 01:06:29;;;;;;;2.72;1.90;;;14.80;99.90;;;;;;5027325;28;20033;-77
2021/06/30 01:08:55;;;;;;;3.65;2.13;;;14.80;99.90;;;;;;5027233;28;20033;-77
2021/06/30 01:11:20;;;;;;;2.70;1.70;;;14.80;99.90;;;;;;5027336;28;20041;-77
2021/06/30 01:13:47;;;;;;;4.15;2.22;;;14.80;99.90;;;;;;5033913;28;20047;-77
2021/06/30 01:16:14;;;;;;;5.75;1.85;;;14.80;99.90;;;;;;5008638;28;20053;-77
2021/06/30 01:18:40;;;;;;;2.95;1.75;;;14.80;99.90;;;;;;5026736;28;20061;-77
2021/06/30 01:21:09;;;;;;;4.07;2.00;;;14.80;99.90;;;;;;5028406;28;20848;-77
2021/06/30 01:23:35;;;;;;;4.35;2.15;;;14.80;99.90;;;;;;5042326;28;20116;-77
2021/06/30 01:26:01;;;;;;;6.15;2.20;;;14.80;99.90;;;;;;5035946;28;20099;-77
2021/06/30 01:28:27;;;;;;;7.40;2.25;;;14.80;99.90;;;;;;5026511;28;20033;-77
2021/06/30 01:30:54;;;;;;;5.43;2.40;;;14.80;99.90;;;;;;5032564;28;20021;-77
2021/06/30 01:33:19;;;;;;;6.05;2.63;;;14.80;99.90;;;;;;5031189;28;20475;-77
2021/06/30 01:35:45;;;;;;;4.57;2.35;;;14.80;99.90;;;;;;5034820;28;20025;-77
2021/06/30 01:38:11;;;;;;;3.15;2.22;;;14.80;99.90;;;;;;5008825;28;20557;-77
2021/06/30 01:40:36;;;;;;;4.38;2.72;;;14.70;99.90;;;;;;5031133;28;20031;-73
2021/06/30 01:43:03;;;;;;;4.65;2.35;;;14.70;99.90;;;;;;5033266;28;20481;-73
2021/06/30 01:45:29;;;;;;;4.65;2.60;;;14.70;99.90;;;;;;5033525;28;20079;-73
2021/06/30 01:47:55;;;;;;;6.65;2.60;;;14.70;99.90;;;;;;5033459;28;20060;-74
2021/06/30 01:50:20;;;;;;;4.15;2.40;;;14.70;99.90;;;;;;5033425;28;20065;-73
2021/06/30 01:52:46;;;;;;;6.40;3.17;;;14.80;99.90;;;;;;5033368;28;20079;-73
2021/06/30 01:55:13;;;;;;;4.55;2.65;;;14.70;99.90;;;;;;5033401;28;20037;-73
2021/06/30 01:57:44;;;;;;;4.15;2.83;;;14.70;99.90;;;;;;5033208;28;20112;-73
2021/06/30 02:00:11;;;;;;;7.95;2.75;;;14.60;99.90;;;;;;5032946;28;20028;-73
2021/06/30 02:02:38;;;;;;;4.43;3.08;;;14.60;99.90;;;;;;5015341;28;20425;-73
2021/06/30 02:05:11;;;;;;;3.80;2.80;;;14.50;99.90;;;;;;5033225;28;20033;-73
2021/06/30 02:07:37;;;;;;;3.08;2.78;;;14.60;99.90;;;;;;5015225;28;20416;-73
2021/06/30 02:10:10;;;;;;;4.55;2.75;;;14.60;99.90;;;;;;5033765;28;20025;-73
2021/06/30 02:12:36;;;;;;;5.72;2.85;;;14.60;99.90;;;;;;5032785;28;20033;-73
2021/06/30 02:15:06;;;;;;;6.65;2.40;;;14.60;99.90;;;;;;5015322;28;20375;-73
2021/06/30 02:17:32;;;;;;;4.15;2.08;;;14.60;99.90;;;;;;5032922;28;20033;-73
2021/06/30 02:19:58;;;;;;;6.57;2.50;;;14.60;99.90;;;;;;5014993;28;20116;-73
2021/06/30 02:22:24;;;;;;;1.98;1.63;;;14.60;99.90;;;;;;5032996;28;20493;-73
2021/06/30 02:24:50;;;;;;;3.47;1.73;;;14.60;99.90;;;;;;5033057;28;20482;-73
2021/06/30 02:27:16;;;;;;;2.28;1.80;;;14.60;99.90;;;;;;5033066;28;20021;-73
2021/06/30 02:29:41;;;;;;;4.30;2.00;;;14.60;99.90;;;;;;5032719;28;20470;-73
2021/06/30 02:32:07;;;;;;;5.40;2.13;;;14.60;99.90;;;;;;5032942;28;20032;-73
2021/06/30 02:34:33;;;;;;;3.08;1.65;;;14.50;99.90;;;;;;5032816;28;20018;-73
2021/06/30 02:36:59;;;;;;;4.47;1.92;;;14.50;99.90;;;;;;5032719;28;20375;-73
2021/06/30 02:39:24;;;;;;;2.28;1.50;;;14.40;99.90;;;;;;5014945;28;20124;-73
2021/06/30 02:41:50;;;;;;;2.53;1.77;;;14.40;99.90;;;;;;5033124;28;20033;-73
2021/06/30 02:44:15;;;;;;;1.70;0.98;;;14.40;99.90;;;;;;5032826;28;20051;-73
2021/06/30 02:46:41;;;;;;;2.35;0.93;;;14.50;99.90;;;;;;5033136;28;20076;-73
2021/06/30 02:49:07;;;;;;;2.05;1.00;;;14.50;99.90;;;;;;5032829;28;20033;-73
2021/06/30 02:51:32;;;;;;;2.00;1.00;;;14.50;99.90;;;;;;5032471;28;20033;-73
2021/06/30 02:53:58;;;;;;;2.45;1.27;;;14.40;99.90;;;;;;5032926;28;20057;-77
2021/06/30 02:56:24;;;;;;;1.20;1.00;;;14.40;99.90;;;;;;5029364;28;20048;-77
2021/06/30 02:58:50;;;;;;;2.25;1.00;;;14.30;99.90;;;;;;5030358;28;20057;-77
2021/06/30 03:01:17;;;;;;;1.10;0.80;;;14.30;99.90;;;;;;5043452;28;20044;-77
2021/06/30 03:03:43;;;;;;;1.45;1.00;;;14.30;99.90;;;;;;5033569;28;20031;-77
2021/06/30 03:06:09;;;;;;;3.50;1.10;;;14.30;99.90;;;;;;5033683;28;20744;-77
2021/06/30 03:08:34;;;;;;;3.03;1.02;;;14.30;99.90;;;;;;5035741;28;20044;-77
2021/06/30 03:11:00;;;;;;;3.63;0.90;;;14.10;99.90;;;;;;5048849;28;20104;-77
2021/06/30 03:13:25;;;;;;;2.03;1.00;;;14.10;99.90;;;;;;5029525;28;20033;-77
2021/06/30 03:15:51;;;;;;;2.00;0.75;;;14.10;99.90;;;;;;5040998;28;20025;-77
2021/06/30 03:18:18;;;;;;;2.47;0.80;;;14.00;99.90;;;;;;5047222;28;20118;-77
2021/06/30 03:20:44;;;;;;;0.93;0.70;;;13.90;99.90;;;;;;5039848;28;20120;-77
2021/06/30 03:23:10;;;;;;;1.90;1.00;;;13.90;99.90;;;;;;5030396;28;20068;-77
2021/06/30 03:25:36;;;;;;;1.27;0.60;;;13.80;99.90;;;;;;5041456;28;20115;-77
2021/06/30 03:28:02;;;;;;;2.05;0.55;;;13.70;99.90;;;;;;5029086;28;20041;-77
2021/06/30 03:30:31;;;;;;;0.50;0.50;;;13.70;99.90;;;;;;5028749;28;20047;-77
2021/06/30 03:32:57;;;;;;;1.55;0.50;;;13.70;99.90;;;;;;5028704;28;20034;-77
2021/06/30 03:35:22;;;;;;;0.70;0.60;;;13.60;99.90;;;;;;5028501;28;20079;-77
2021/06/30 03:37:48;;;;;;;0.73;0.60;;;13.50;99.90;;;;;;5028772;28;20030;-77
2021/06/30 03:40:14;;;;;;;0.50;0.50;;;13.50;99.90;;;;;;5031000;28;20112;-77
2021/06/30 03:42:39;;;;;;;0.88;0.60;;;13.50;99.90;;;;;;5031484;28;20037;-77
2021/06/30 03:45:06;;;;;;;0.70;0.50;;;13.40;99.90;;;;;;5047627;28;20052;-77
2021/06/30 03:47:31;;;;;;;1.95;0.57;;;13.40;99.90;;;;;;5041448;28;20041;-77
2021/06/30 03:49:58;;;;;;;0.93;0.60;;;13.30;99.90;;;;;;5033079;28;20200;-77
2021/06/30 03:52:24;;;;;;;0.88;0.50;;;13.40;99.90;;;;;;5032387;28;20059;-77
2021/06/30 03:54:50;;;;;;;3.15;1.17;;;13.30;99.90;;;;;;5028786;28;20029;-77
2021/06/30 03:57:15;;;;;;;0.60;0.60;;;13.30;99.90;;;;;;5028489;28;20401;-77
2021/06/30 03:59:41;;;;;;;1.98;0.50;;;13.20;99.90;;;;;;5016457;28;20029;-77
2021/06/30 04:02:06;;;;;;;0.40;0.40;;;13.20;99.90;;;;;;5028524;28;20524;-77
2021/06/30 04:04:32;;;;;;;0.60;0.50;;;13.20;99.90;;;;;;5033023;28;20049;-78
2021/06/30 04:06:58;;;;;;;1.02;0.52;;;13.20;99.90;;;;;;5028270;28;20555;-78
2021/06/30 04:09:23;;;;;;;0.85;0.50;;;13.10;99.90;;;;;;5035448;28;20439;-77
2021/06/30 04:11:49;;;;;;;2.47;1.05;;;13.10;99.90;;;;;;5037416;28;20082;-77
2021/06/30 04:14:14;;;;;;;0.95;0.50;;;13.10;99.90;;;;;;5032982;28;20091;-77
2021/06/30 04:16:40;;;;;;;0.60;0.50;;;13.10;99.90;;;;;;5034488;28;20038;-77
2021/06/30 04:19:05;;;;;;;1.40;0.50;;;13.10;99.90;;;;;;5036631;28;20045;-77
2021/06/30 04:21:32;;;;;;;2.75;1.08;;;13.10;99.90;;;;;;5043074;28;20090;-77
2021/06/30 04:23:57;;;;;;;1.17;0.60;;;13.10;99.90;;;;;;5018030;28;20075;-76
2021/06/30 04:26:23;;;;;;;1.30;0.50;;;13.10;99.90;;;;;;5049700;28;20033;-73
2021/06/30 04:28:49;;;;;;;0.90;0.60;;;13.10;99.90;;;;;;5054515;28;20025;-73
2021/06/30 04:31:15;;;;;;;1.20;0.60;;;13.20;99.90;;;;;;5054477;28;20029;-72
2021/06/30 04:33:41;;;;;;;0.60;0.50;;;13.20;99.90;;;;;;5054398;28;20112;-73
2021/06/30 04:36:06;;;;;;;2.25;0.50;;;13.20;99.90;;;;;;5054473;28;20036;-72
2021/06/30 04:38:32;;;;;;;1.00;0.50;;;13.20;99.90;;;;;;5054635;28;20033;-73
2021/06/30 04:40:57;;;;;;;3.22;0.93;;;13.20;99.90;;;;;;5054408;28;20107;-73
2021/06/30 04:43:23;;;;;;;2.33;0.60;;;13.10;99.90;;;;;;5036327;28;20033;-73
2021/06/30 04:45:48;;;;;;;1.38;0.55;;;13.10;99.90;;;;;;5054726;28;20489;-73
2021/06/30 04:48:15;;;;;;;0.70;0.40;;;13.10;99.90;;;;;;5054344;28;20530;-72
2021/06/30 04:50:41;;;;;;;1.13;0.50;;;13.10;99.90;;;;;;5051142;28;20120;-72
2021/06/30 04:53:06;;;;;;;1.35;0.55;;;13.10;99.90;;;;;;5034162;28;20025;-72
2021/06/30 04:55:32;;;;;;;2.60;0.60;;;13.10;99.90;;;;;;5034377;28;20092;-74
2021/06/30 04:57:58;;;;;;;2.47;0.60;;;13.20;99.90;;;;;;5034794;28;20100;-72
2021/06/30 05:00:23;;;;;;;1.17;0.55;;;13.20;99.90;;;;;;5034186;28;20025;-72
2021/06/30 05:02:49;;;;;;;0.98;0.52;;;13.30;99.90;;;;;;5034030;28;20088;-73
2021/06/30 05:05:15;;;;;;;1.30;0.60;;;13.30;99.90;;;;;;5032583;28;20785;-77
2021/06/30 05:07:41;;;;;;;1.45;0.70;;;13.30;99.90;;;;;;5045311;28;20347;-78
2021/06/30 05:10:07;;;;;;;1.75;0.80;;;13.30;99.90;;;;;;5047156;28;20083;-76
2021/06/30 05:12:33;;;;;;;0.47;0.40;;;13.40;99.90;;;;;;5028503;28;20067;-77
2021/06/30 05:14:58;;;;;;;0.52;0.50;;;13.40;99.90;;;;;;5046893;28;20052;-76
2021/06/30 05:17:24;;;;;;;0.93;0.60;;;13.40;99.90;;;;;;5045715;28;20060;-76
2021/06/30 05:19:49;;;;;;;0.50;0.50;;;13.30;99.90;;;;;;5039275;28;20053;-76
2021/06/30 05:22:15;;;;;;;1.00;0.90;;;13.40;99.90;;;;;;5043629;28;20383;-76
2021/06/30 05:24:40;;;;;;;1.38;0.82;;;13.40;99.90;;;;;;5042266;28;20049;-76
2021/06/30 05:27:06;;;;;;;1.42;0.40;;;13.30;99.90;;;;;;5043145;28;20025;-76
2021/06/30 05:29:32;;;;;;;0.50;0.40;;;13.30;99.90;;;;;;5042722;28;20024;-76
2021/06/30 05:31:57;;;;;;;1.45;0.40;;;13.30;99.90;;;;;;5041678;28;20056;-76
2021/06/30 05:34:23;;;;;;;1.48;0.50;;;13.30;99.90;;;;;;5043841;28;20053;-76
2021/06/30 05:36:49;;;;;;;0.40;0.40;;;13.30;99.90;;;;;;5043199;28;20029;-76
2021/06/30 05:39:19;;;;;;;0.50;0.40;;;13.40;99.90;;;;;;5039742;28;20041;-76
2021/06/30 05:41:45;;;;;;;0.88;0.50;;;13.40;99.90;;;;;;5042444;28;20466;-77
2021/06/30 05:44:12;;;;;;;0.80;0.50;;;13.40;99.90;;;;;;5044552;28;20033;-76
2021/06/30 05:46:42;;;;;;;0.40;0.40;;;13.40;99.90;;;;;;5025883;28;20029;-69
2021/06/30 05:49:08;;;;;;;0.70;0.60;;;13.50;99.90;;;;;;5043036;28;20417;-69
2021/06/30 05:51:34;;;;;;;2.45;0.82;;;13.50;99.90;;;;;;5044581;28;20504;-71
2021/06/30 05:54:00;;;;;;;3.00;0.65;;;13.60;99.90;;;;;;5052675;28;20029;-70
2021/06/30 05:56:26;;;;;;;0.82;0.55;;;13.60;99.90;;;;;;5057758;28;20100;-69
2021/06/30 05:58:52;;;;;;;0.77;0.57;;;13.80;99.90;;;;;;5040952;28;20029;-67
2021/06/30 06:01:17;;;;;;;2.30;0.60;;;13.80;99.90;;;;;;5037925;28;20025;-67
2021/06/30 06:03:43;;;;;;;1.23;0.50;;;13.90;99.90;;;;;;5051561;28;20039;-71
2021/06/30 06:06:08;;;;;;;0.68;0.50;;;13.90;99.90;;;;;;5042870;28;20454;-67
2021/06/30 06:08:34;;;;;;;1.10;0.52;;;13.90;99.90;;;;;;5050313;28;20478;-67
2021/06/30 06:11:00;;;;;;;1.23;0.57;;;13.90;99.90;;;;;;5042599;28;20075;-67
2021/06/30 06:13:26;;;;;;;1.15;0.45;;;13.90;99.90;;;;;;5050577;28;20478;-67
2021/06/30 06:15:53;;;;;;;0.60;0.50;;;13.90;99.90;;;;;;5050928;28;20063;-67
2021/06/30 06:18:18;;;;;;;2.15;0.50;;;13.80;99.90;;;;;;5041290;28;20085;-74
2021/06/30 06:20:44;;;;;;;1.95;0.40;;;13.80;99.90;;;;;;5019972;28;20672;-72
2021/06/30 06:23:10;;;;;;;0.60;0.60;;;13.80;99.90;;;;;;5040619;28;20033;-68
2021/06/30 06:25:36;;;;;;;2.10;0.52;;;14.00;99.90;;;;;;5047128;28;20032;-67
2021/06/30 06:28:04;;;;;;;0.50;0.40;;;14.10;99.90;;;;;;5051805;28;20357;-67
2021/06/30 06:30:30;;;;;;;1.38;0.60;;;14.30;99.90;;;;;;5054154;28;20095;-67
2021/06/30 06:32:56;;;;;;;1.73;0.50;;;14.60;99.90;;;;;;5056801;28;20033;-74
2021/06/30 06:35:22;;;;;;;0.93;0.40;;;14.90;99.90;;;;;;5056829;28;20116;-74
2021/06/30 06:37:48;;;;;;;0.40;0.40;;;15.20;99.90;;;;;;5055695;28;20082;-73
2021/06/30 06:40:14;;;;;;;0.68;0.50;;;15.50;99.90;;;;;;5056806;28;20040;-73
2021/06/30 06:42:40;;;;;;;0.40;0.40;;;15.60;99.90;;;;;;5055333;28;20647;-78
2021/06/30 06:45:07;;;;;;;0.38;0.38;;;15.70;99.90;;;;;;5045058;28;20032;-78
2021/06/30 06:47:33;;;;;;;1.60;0.50;;;15.80;99.90;;;;;;5047689;28;20116;-78
2021/06/30 06:49:59;;;;;;;1.48;0.38;;;16.00;99.90;;;;;;5048377;28;20827;-74
2021/06/30 06:52:25;;;;;;;0.30;0.30;;;16.00;99.90;;;;;;5056867;28;20033;-73
2021/06/30 06:54:50;;;;;;;0.50;0.40;;;16.10;99.90;;;;;;5056268;28;20032;-74
2021/06/30 06:57:16;;;;;;;0.88;0.32;;;16.20;99.90;;;;;;5053784;28;20103;-77
2021/06/30 06:59:42;;;;;;;0.38;0.38;;;16.30;99.90;;;;;;5042614;28;20381;-77
2021/06/30 07:02:07;;;;;;;0.68;0.50;;;16.40;99.90;;;;;;5047032;28;20029;-73
2021/06/30 07:04:33;;;;;;;0.52;0.40;;;16.30;99.90;;;;;;5056720;28;20473;-73
2021/06/30 07:06:58;;;;;;;0.82;0.50;;;16.30;99.90;;;;;;5056573;28;20037;-73
2021/06/30 07:09:24;;;;;;;0.50;0.50;;;16.40;99.90;;;;;;5056487;28;20036;-72
2021/06/30 07:11:50;;;;;;;0.40;0.40;;;16.60;99.90;;;;;;5056238;28;20083;-73
2021/06/30 07:14:16;;;;;;;0.70;0.60;;;16.60;99.90;;;;;;5056079;28;20100;-74
2021/06/30 07:16:41;;;;;;;2.40;0.40;;;16.70;99.90;;;;;;5054643;28;20025;-73
2021/06/30 07:19:07;;;;;;;0.55;0.50;;;16.70;99.90;;;;;;5055666;28;20045;-73
2021/06/30 07:21:33;;;;;;;1.58;0.50;;;16.80;99.90;;;;;;5055874;28;20017;-74
2021/06/30 07:24:03;;;;;;;0.52;0.40;;;16.80;99.90;;;;;;5041024;28;20504;-78
2021/06/30 07:26:29;;;;;;;0.75;0.40;;;16.80;99.90;;;;;;5038021;28;20041;-78
2021/06/30 07:28:55;;;;;;;0.30;0.30;;;16.80;99.90;;;;;;5042775;28;20821;-78
2021/06/30 07:31:22;;;;;;;0.75;0.50;;;16.60;99.90;;;;;;5029217;28;20072;-78
2021/06/30 07:33:48;;;;;;;1.17;0.65;;;16.50;99.90;;;;;;5052004;28;20033;-73
2021/06/30 07:36:14;;;;;;;0.50;0.50;;;16.50;99.90;;;;;;5057644;28;20461;-73
2021/06/30 07:38:41;;;;;;;1.10;0.82;;;16.50;99.90;;;;;;5055741;28;20473;-73
2021/06/30 07:41:06;;;;;;;0.40;0.40;;;16.60;99.90;;;;;;5055147;28;20104;-74
2021/06/30 07:43:32;;;;;;;0.40;0.40;;;16.70;99.90;;;;;;5055316;28;20091;-74
2021/06/30 07:45:57;;;;;;;0.95;0.55;;;16.80;99.90;;;;;;5055633;28;20489;-74
2021/06/30 07:48:23;;;;;;;1.33;0.50;;;16.90;99.90;;;;;;5055436;28;20048;-69
2021/06/30 07:50:49;;;;;;;0.65;0.50;;;17.10;99.90;;;;;;5055369;28;20389;-74
2021/06/30 07:53:15;;;;;;;1.40;0.40;;;17.30;99.90;;;;;;5052214;28;20029;-73
2021/06/30 07:55:41;;;;;;;1.65;0.40;;;17.40;99.90;;;;;;5041500;28;20031;-73
2021/06/30 07:58:07;;;;;;;0.55;0.50;;;17.40;99.90;;;;;;5044188;28;20021;-73
2021/06/30 08:00:32;;;;;;;0.52;0.40;;;17.40;99.90;;;;;;5055132;28;20025;-72
2021/06/30 08:02:58;;;;;;;1.63;0.57;;;17.60;99.90;;;;;;5055632;28;20099;-73
2021/06/30 08:05:24;;;;;;;0.60;0.40;;;17.60;99.90;;;;;;5055085;28;20033;-73
2021/06/30 08:07:49;;;;;;;2.00;0.50;;;17.70;99.90;;;;;;5055321;28;20199;-73
2021/06/30 08:10:15;;;;;;;0.57;0.50;;;17.70;99.90;;;;;;5054939;28;20121;-73
2021/06/30 08:12:41;;;;;;;1.23;0.45;;;17.70;99.90;;;;;;5054944;28;20044;-73
2021/06/30 08:15:08;;;;;;;0.52;0.50;;;17.80;99.90;;;;;;5050445;28;20056;-73
2021/06/30 08:17:34;;;;;;;0.65;0.52;;;17.70;99.90;;;;;;5049231;28;20025;-73
2021/06/30 08:20:00;;;;;;;1.23;0.60;;;17.80;99.90;;;;;;5052145;28;20048;-73
2021/06/30 08:22:25;;;;;;;2.15;0.60;;;17.80;99.90;;;;;;5045129;28;20385;-73
2021/06/30 08:24:51;;;;;;;2.28;0.60;;;17.80;99.90;;;;;;5052339;28;20055;-72
2021/06/30 08:27:19;;;;;;;0.80;0.50;;;17.60;99.90;;;;;;5036474;28;20109;-73
2021/06/30 08:29:45;;;;;;;0.45;0.40;;;17.40;99.90;;;;;;5039567;28;20041;-77
2021/06/30 08:32:11;;;;;;;0.82;0.50;;;17.20;99.90;;;;;;5018274;28;20481;-78
2021/06/30 08:34:36;;;;;;;0.65;0.50;;;17.20;99.90;;;;;;5043324;28;20541;-77
2021/06/30 08:37:06;;;;;;;0.60;0.60;;;17.20;99.90;;;;;;5020255;28;20031;-77
2021/06/30 08:39:32;;;;;;;1.00;0.70;;;17.40;99.90;;;;;;5046987;28;20052;-78
2021/06/30 08:41:58;;;;;;;2.55;0.50;;;17.50;99.90;;;;;;5043137;28;20121;-77
2021/06/30 08:44:25;;;;;;;0.40;0.40;;;17.60;99.90;;;;;;5045011;28;20033;-77
2021/06/30 08:46:54;;;;;;;0.43;0.40;;;17.80;99.90;;;;;;5043839;28;20481;-76
2021/06/30 08:49:24;;;;;;;3.05;0.40;;;17.90;99.90;;;;;;5039620;28;20044;-78
2021/06/30 08:51:52;;;;;;;1.70;0.45;;;18.10;99.90;;;;;;5037883;28;20037;-77
2021/06/30 08:54:19;;;;;;;0.73;0.50;;;18.30;99.90;;;;;;5031804;28;20032;-77
2021/06/30 08:56:45;;;;;;;1.58;0.65;;;18.50;99.90;;;;;;5046060;28;20025;-77
2021/06/30 08:59:11;;;;;;;0.93;0.50;;;18.30;99.90;;;;;;5042276;28;20041;-77
2021/06/30 09:01:38;;;;;;;1.48;0.65;;;18.20;99.90;;;;;;5053844;28;20075;-72
2021/06/30 09:04:06;;;;;;;0.70;0.60;;;18.00;99.90;;;;;;5053774;28;20025;-74
2021/06/30 09:06:32;;;;;;;1.40;0.50;;;18.00;99.90;;;;;;5053512;28;20029;-72
2021/06/30 09:09:05;;;;;;;0.50;0.50;;;18.00;99.90;;;;;;5053690;28;20530;-72
2021/06/30 09:11:31;;;;;;;0.70;0.52;;;17.80;99.90;;;;;;5053656;28;20033;-73
2021/06/30 09:14:11;;;;;;;2.42;0.60;;;17.80;99.90;;;;;;5053940;28;20036;-72
2021/06/30 09:16:58;;;;;;;1.00;0.52;;;18.10;99.90;;;;;;5053889;28;20021;-72
2021/06/30 09:19:45;;;;;;;1.08;0.60;;;18.20;99.90;;;;;;5053231;28;20127;-72
2021/06/30 09:22:10;;;;;;;0.60;0.50;;;18.30;99.90;;;;;;5035463;28;20021;-72
2021/06/30 09:24:39;;;;;;;2.30;0.50;;;18.20;99.90;;;;;;5048948;28;20472;-76
2021/06/30 09:27:06;;;;;;;1.33;0.50;;;18.30;99.90;;;;;;5034139;28;20450;-73
2021/06/30 09:29:31;;;;;;;0.82;0.40;;;18.40;99.90;;;;;;5033041;28;20041;-73
2021/06/30 09:31:57;;;;;;;1.13;0.60;;;18.20;99.90;;;;;;5040469;28;20381;-73
2021/06/30 09:34:27;;;;;;;1.02;0.50;;;18.00;99.90;;;;;;5053445;28;20025;-72
2021/06/30 09:37:05;;;;;;;1.85;0.70;;;17.90;99.90;;;;;;5038816;28;20062;-75
2021/06/30 09:39:36;;;;;;;0.75;0.40;;;17.80;99.90;;;;;;5046865;28;20068;-69
2021/06/30 09:42:13;;;;;;;2.08;0.60;;;17.80;99.90;;;;;;5045607;28;20099;-69
2021/06/30 09:44:40;;;;;;;0.60;0.45;;;17.70;99.90;;;;;;5028372;28;20131;-71
2021/06/30 09:47:07;;;;;;;1.17;0.60;;;17.50;99.90;;;;;;5038687;28;20033;-69
2021/06/30 09:49:37;;;;;;;1.13;0.50;;;17.40;99.90;;;;;;5044419;28;20060;-67
2021/06/30 09:52:15;;;;;;;1.15;0.50;;;17.20;99.90;;;;;;5043780;28;20029;-72
2021/06/30 09:54:42;;;;;;;5.35;0.82;;;17.10;99.90;;;;;;5048867;28;20524;-72
2021/06/30 09:57:10;;;;;;;3.25;0.85;;;17.10;99.90;;;;;;5022450;28;20026;-72
2021/06/30 09:59:40;;;;;;;0.40;0.40;;;17.10;99.90;;;;;;5040065;28;20461;-72
2021/06/30 10:02:17;;;;;;;1.25;0.60;;;17.20;99.90;;;;;;5051511;28;20043;-72
2021/06/30 10:04:59;;;;;;;0.85;0.50;;;17.20;99.90;;;;;;5052313;28;20099;-72
2021/06/30 10:07:30;;;;;;;0.75;0.60;;;17.50;99.90;;;;;;5053230;28;20052;-73
2021/06/30 10:09:56;;;;;;;0.50;0.50;;;18.00;99.90;;;;;;5052931;28;20032;-72
2021/06/30 10:12:26;;;;;;;0.55;0.50;;;18.30;99.90;;;;;;5052659;28;20025;-72
2021/06/30 10:14:53;;;;;;;0.57;0.50;;;18.30;99.90;;;;;;5046421;28;20037;-76
2021/06/30 10:17:19;;;;;;;1.48;0.70;;;18.50;99.90;;;;;;5035308;28;20481;-77
2021/06/30 10:19:47;;;;;;;2.13;0.52;;;18.80;99.90;;;;;;5031627;28;20402;-77
2021/06/30 10:22:13;;;;;;;1.77;0.60;;;18.90;99.90;;;;;;5033511;28;20021;-76
2021/06/30 10:24:39;;;;;;;1.65;0.68;;;18.90;99.90;;;;;;5033023;28;20207;-77
2021/06/30 10:27:06;;;;;;;1.83;0.50;;;19.00;99.90;;;;;;5030086;28;20062;-77
2021/06/30 10:29:39;;;;;;;1.23;0.50;;;19.00;99.90;;;;;;5034293;28;20547;-77
2021/06/30 10:32:13;;;;;;;2.30;0.65;;;19.00;99.90;;;;;;5039738;28;20072;-72
2021/06/30 10:34:43;;;;;;;2.38;0.65;;;19.10;99.90;;;;;;5039674;28;20056;-77
2021/06/30 10:37:30;;;;;;;1.20;0.55;;;18.90;99.90;;;;;;5016610;28;20430;-77
2021/06/30 10:39:57;;;;;;;0.75;0.60;;;19.00;99.90;;;;;;5037381;28;20013;-77
2021/06/30 10:42:37;;;;;;;1.67;0.80;;;18.90;99.90;;;;;;5033493;28;20033;-72
2021/06/30 10:45:20;;;;;;;0.60;0.60;;;18.80;99.90;;;;;;5052894;28;20025;-72
2021/06/30 10:47:54;;;;;;;0.75;0.60;;;18.70;99.90;;;;;;5042370;28;20029;-77
2021/06/30 10:50:22;;;;;;;1.20;0.75;;;18.70;99.90;;;;;;5046921;28;20021;-72
2021/06/30 10:53:15;;;;;;;0.50;0.50;;;18.50;99.90;;;;;;5052467;28;20025;-71
2021/06/30 10:55:47;;;;;;;2.03;0.60;;;18.40;99.90;;;;;;4999560;28;20052;-77
2021/06/30 10:58:18;;;;;;;0.57;0.57;;;18.30;99.90;;;;;;5027105;28;20056;-77
2021/06/30 11:00:48;;;;;;;0.70;0.57;;;18.20;99.90;;;;;;5025504;28;20358;-77
2021/06/30 11:03:30;;;;;;;1.75;0.60;;;18.00;99.90;;;;;;5025929;28;20032;-77
2021/06/30 11:06:29;;;;;;;0.57;0.57;;;17.90;99.90;;;;;;5034202;28;20587;-77
2021/06/30 11:08:56;;;;;;;2.00;0.70;;;17.90;99.90;;;;;;5042797;28;20070;-77
2021/06/30 11:11:34;;;;;;;0.73;0.70;;;17.80;99.90;;;;;;5039834;28;20033;-77
2021/06/30 11:14:11;;;;;;;1.20;0.70;;;17.90;99.90;;;;;;5026870;28;20112;-77
2021/06/30 11:16:40;;;;;;;0.50;0.50;;;17.70;99.90;;;;;;5043206;28;20385;-71
2021/06/30 11:19:29;;;;;;;0.65;0.60;;;17.70;99.90;;;;;;5035743;28;20045;-71
2021/06/30 11:22:04;;;;;;;1.00;0.60;;;17.60;99.90;;;;;;5035895;28;20171;-71
2021/06/30 11:24:36;;;;;;;0.73;0.60;;;17.60;99.90;;;;;;5037014;28;20083;-71
2021/06/30 11:27:12;;;;;;;1.00;0.68;;;17.60;99.90;;;;;;5056056;28;20032;-71
2021/06/30 11:29:43;;;;;;;2.63;0.52;;;17.60;99.90;;;;;;5055568;28;20105;-72
2021/06/30 11:32:10;;;;;;;0.98;0.60;;;17.70;99.90;;;;;;5034819;28;20031;-77
2021/06/30 11:34:38;;;;;;;1.38;0.60;;;17.90;99.90;;;;;;5045827;28;20477;-78
2021/06/30 11:37:04;;;;;;;0.68;0.60;;;17.90;99.90;;;;;;5042121;28;20371;-78
2021/06/30 11:39:30;;;;;;;0.60;0.60;;;17.70;99.90;;;;;;5027200;28;20753;-78
2021/06/30 11:41:55;;;;;;;1.23;0.68;;;17.50;99.90;;;;;;5042150;28;20048;-77
2021/06/30 11:44:34;;;;;;;2.05;0.77;;;17.50;99.90;;;;;;5041557;28;20872;-77
2021/06/30 11:47:05;;;;;;;0.52;0.52;;;17.50;99.90;;;;;;5041347;28;20035;-78
2021/06/30 11:49:31;;;;;;;0.85;0.65;;;17.40;99.90;;;;;;5045926;28;20765;-71
2021/06/30 11:52:01;;;;;;;2.25;1.08;;;17.40;99.90;;;;;;5050606;28;20138;-71
2021/06/30 11:54:30;;;;;;;1.55;0.70;;;17.50;99.90;;;;;;5055289;28;20079;-70
2021/06/30 11:56:56;;;;;;;2.42;0.85;;;17.30;99.90;;;;;;5055057;28;20036;-70
2021/06/30 11:59:25;;;;;;;1.38;0.60;;;17.40;99.90;;;;;;5055043;28;20032;-70
2021/06/30 12:01:52;;;;;;;0.70;0.70;;;17.20;99.90;;;;;;5055050;28;20017;-70
2021/06/30 12:04:24;;;;;;;1.50;0.70;;;17.10;99.90;;;;;;5037132;28;20025;-71
2021/06/30 12:06:55;;;;;;;4.28;1.15;;;17.00;99.90;;;;;;5054913;28;20025;-71
2021/06/30 12:09:22;;;;;;;1.73;0.80;;;16.70;99.90;;;;;;5054943;28;20525;-71
2021/06/30 12:11:51;;;;;;;3.45;0.90;;;16.60;99.90;;;;;;5054521;28;20021;-71
2021/06/30 12:14:20;;;;;;;1.30;0.80;;;16.40;99.90;;;;;;5044413;28;20021;-71
2021/06/30 12:16:59;;;;;;;1.58;0.95;;;16.20;99.90;;;;;;5055135;28;20054;-71
2021/06/30 12:19:34;;;;;;;0.93;0.60;;;16.10;99.90;;;;;;5055382;28;20067;-72
2021/06/30 12:22:01;;;;;;;2.45;0.90;;;15.90;99.90;;;;;;5054597;28;20052;-72
2021/06/30 12:24:27;;;;;;;2.47;0.80;;;15.70;99.90;;;;;;5052374;28;20064;-72
2021/06/30 12:27:07;;;;;;;2.15;1.00;;;15.70;99.90;;;;;;5053773;28;20319;-72
2021/06/30 12:29:34;;;;;;;2.58;0.90;;;15.60;99.90;;;;;;5039541;28;20378;-72
2021/06/30 12:32:05;;;;;;;2.95;0.90;;;15.50;99.90;;;;;;5034807;28;20096;-72
2021/06/30 12:34:33;;;;;;;1.17;0.80;;;15.30;99.90;;;;;;5034519;28;20032;-72
2021/06/30 12:36:59;;;;;;;1.88;1.10;;;15.30;99.90;;;;;;5034723;28;20017;-72
2021/06/30 12:39:28;;;;;;;3.50;0.98;;;15.30;99.90;;;;;;5035298;28;20045;-72
2021/06/30 12:42:06;;;;;;;2.67;0.85;;;15.30;99.90;;;;;;5054352;28;20028;-72
2021/06/30 12:44:59;;;;;;;1.42;0.73;;;15.40;99.90;;;;;;5054025;28;20025;-72
2021/06/30 12:47:26;;;;;;;1.88;0.80;;;15.40;99.90;;;;;;5047453;28;20035;-76
2021/06/30 12:50:25;;;;;;;2.25;1.00;;;15.30;99.90;;;;;;5027982;28;20174;-76